createdAt,value
2023-05-15T00:00:45.176Z,90.66
2023-05-15T00:03:47.179Z,91.08
2023-05-15T00:06:49.298Z,90.22
2023-05-15T00:09:51.251Z,89.66
2023-05-15T00:12:53.199Z,89.50
2023-05-15T00:15:56.715Z,89.59
2023-05-15T00:19:01.524Z,89.35
2023-05-15T00:22:03.536Z,89.54
2023-05-15T00:25:06.393Z,89.74
2023-05-15T00:28:08.252Z,89.27
2023-05-15T00:31:13.225Z,88.71
2023-05-15T00:34:15.157Z,88.42
2023-05-15T00:37:17.058Z,89.01
2023-05-15T00:40:21.401Z,89.50
2023-05-15T00:43:25.940Z,89.70
2023-05-15T00:46:31.981Z,89.61
2023-05-15T00:49:35.875Z,89.46
2023-05-15T00:52:38.259Z,89.26
2023-05-15T00:55:42.481Z,89.17
2023-05-15T00:58:47.621Z,89.74
2023-05-15T01:01:51.159Z,89.52
2023-05-15T01:04:53.117Z,89.46
2023-05-15T01:08:01.311Z,89.61
2023-05-15T01:11:05.820Z,89.58
2023-05-15T01:14:08.882Z,89.49
2023-05-15T01:17:12.202Z,89.65
2023-05-15T01:20:18.745Z,89.68
2023-05-15T01:23:32.507Z,89.59
2023-05-15T01:27:16.054Z,89.47
2023-05-15T01:30:23.623Z,89.38
2023-05-15T01:33:29.741Z,89.06
2023-05-15T01:36:37.838Z,89.26
2023-05-15T01:39:42.673Z,89.62
2023-05-15T01:42:54.064Z,89.45
2023-05-15T01:45:58.929Z,90.23
2023-05-15T01:49:03.374Z,89.64
2023-05-15T01:52:08.930Z,89.75
2023-05-15T01:55:11.059Z,89.59
2023-05-15T01:58:15.850Z,90.18
2023-05-15T02:01:19.599Z,89.58
2023-05-15T02:04:22.552Z,89.43
2023-05-15T02:07:27.987Z,89.66
2023-05-15T02:10:32.023Z,89.30
2023-05-15T02:13:36.428Z,89.67
2023-05-15T02:16:38.848Z,89.22
2023-05-15T02:19:40.784Z,89.44
2023-05-15T02:22:45.178Z,89.43
2023-05-15T02:26:01.324Z,89.30
2023-05-15T02:29:13.884Z,88.68
2023-05-15T02:32:22.826Z,88.75
2023-05-15T02:35:36.264Z,89.14
2023-05-15T02:38:44.747Z,89.24
2023-05-15T02:41:47.985Z,89.61
2023-05-15T02:44:53.698Z,88.92
2023-05-15T02:47:58.521Z,88.44
2023-05-15T02:51:00.952Z,88.74
2023-05-15T02:54:03.203Z,88.08
2023-05-15T02:57:05.614Z,88.53
2023-05-15T03:00:13.492Z,89.29
2023-05-15T03:03:15.506Z,89.10
2023-05-15T03:06:18.768Z,89.46
2023-05-15T03:09:21.132Z,89.03
2023-05-15T03:12:23.029Z,89.04
2023-05-15T03:15:26.810Z,88.89
2023-05-15T03:18:29.149Z,89.17
2023-05-15T03:21:31.806Z,89.09
2023-05-15T03:24:33.652Z,89.83
2023-05-15T03:27:36.167Z,89.23
2023-05-15T03:30:39.431Z,89.36
2023-05-15T03:33:41.911Z,89.71
2023-05-15T03:36:46.704Z,89.53
2023-05-15T03:39:48.642Z,89.74
2023-05-15T03:42:53.565Z,89.80
2023-05-15T03:45:57.011Z,89.29
2023-05-15T03:48:59.125Z,89.66
2023-05-15T03:52:01.226Z,88.82
2023-05-15T03:55:03.494Z,89.22
2023-05-15T03:58:05.748Z,89.44
2023-05-15T04:01:08.970Z,89.73
2023-05-15T04:04:10.860Z,89.07
2023-05-15T04:07:12.765Z,88.64
2023-05-15T04:10:14.674Z,88.72
2023-05-15T04:13:16.847Z,89.18
2023-05-15T04:16:20.296Z,89.08
2023-05-15T04:19:22.351Z,88.91
2023-05-15T04:22:24.434Z,88.85
2023-05-15T04:25:27.437Z,89.40
2023-05-15T04:28:30.558Z,89.03
2023-05-15T04:31:35.362Z,89.26
2023-05-15T04:34:37.432Z,89.06
2023-05-15T04:37:40.075Z,88.88
2023-05-15T04:40:42.098Z,89.27
2023-05-15T04:43:43.996Z,89.07
2023-05-15T04:46:47.577Z,88.94
2023-05-15T04:49:50.259Z,88.53
2023-05-15T04:52:52.333Z,88.91
2023-05-15T04:55:54.405Z,88.85
2023-05-15T04:58:59.396Z,89.36
2023-05-15T05:02:03.505Z,88.63
2023-05-15T05:05:06.412Z,89.02
2023-05-15T05:08:08.356Z,88.19
2023-05-15T05:11:10.427Z,87.71
2023-05-15T05:14:13.494Z,88.99
2023-05-15T05:17:17.123Z,88.16
2023-05-15T05:20:19.290Z,88.56
2023-05-15T05:23:21.230Z,88.55
2023-05-15T05:26:23.108Z,88.40
2023-05-15T05:29:25.309Z,87.93
2023-05-15T05:32:28.675Z,88.01
2023-05-15T05:35:30.839Z,88.38
2023-05-15T05:38:33.178Z,88.10
2023-05-15T05:41:35.089Z,88.82
2023-05-15T05:44:37.014Z,88.92
2023-05-15T05:47:40.535Z,88.16
2023-05-15T05:50:42.487Z,88.33
2023-05-15T05:53:44.366Z,87.70
2023-05-15T05:56:46.348Z,87.71
2023-05-15T05:59:49.876Z,87.80
2023-05-15T06:02:56.466Z,89.82
2023-05-15T06:05:58.709Z,94.50
2023-05-15T06:09:00.731Z,93.68
2023-05-15T06:12:04.957Z,94.37
2023-05-15T06:15:07.983Z,94.58
2023-05-15T06:18:11.343Z,94.71
2023-05-15T06:21:13.364Z,94.70
2023-05-15T06:24:15.292Z,94.03
2023-05-15T06:27:17.227Z,93.82
2023-05-15T06:30:19.176Z,93.45
2023-05-15T06:33:22.421Z,92.66
2023-05-15T06:36:24.441Z,91.39
2023-05-15T06:39:26.556Z,88.95
2023-05-15T06:42:28.522Z,89.01
2023-05-15T06:45:30.498Z,88.00
2023-05-15T06:48:33.819Z,87.20
2023-05-15T06:51:35.733Z,87.80
2023-05-15T06:54:37.804Z,86.27
2023-05-15T06:57:39.743Z,87.25
2023-05-15T07:00:44.436Z,86.36
2023-05-15T07:03:47.792Z,89.19
2023-05-15T07:06:49.681Z,89.91
2023-05-15T07:09:52.113Z,91.12
2023-05-15T07:12:54.084Z,90.98
2023-05-15T07:15:55.968Z,91.15
2023-05-15T07:19:01.104Z,91.02
2023-05-15T07:22:03.570Z,91.69
2023-05-15T07:25:06.687Z,90.04
2023-05-15T07:28:08.652Z,90.02
2023-05-15T07:31:10.922Z,90.34
2023-05-15T07:34:14.256Z,90.47
2023-05-15T07:37:16.966Z,90.08
2023-05-15T07:40:19.074Z,91.02
2023-05-15T07:43:21.018Z,88.99
2023-05-15T07:46:23.042Z,89.28
2023-05-15T07:49:26.904Z,88.05
2023-05-15T07:52:28.947Z,88.53
2023-05-15T07:55:30.917Z,89.43
2023-05-15T07:58:35.573Z,88.75
2023-05-15T08:01:37.462Z,88.43
2023-05-15T08:04:41.444Z,89.26
2023-05-15T08:07:43.499Z,86.76
2023-05-15T08:10:45.409Z,87.35
2023-05-15T08:13:47.430Z,88.02
2023-05-15T08:16:50.432Z,88.51
2023-05-15T08:19:54.036Z,86.70
2023-05-15T08:22:55.982Z,86.03
2023-05-15T08:25:58.005Z,87.35
2023-05-15T08:28:59.935Z,86.26
2023-05-15T08:32:02.079Z,86.98
2023-05-15T08:35:06.448Z,85.54
2023-05-15T08:38:08.540Z,85.22
2023-05-15T08:41:25.907Z,87.50
2023-05-15T08:44:35.393Z,84.26
2023-05-15T08:47:40.708Z,86.58
2023-05-15T08:50:44.760Z,82.57
2023-05-15T08:53:47.166Z,82.25
2023-05-15T08:56:49.374Z,82.48
2023-05-15T08:59:52.953Z,82.82
2023-05-15T09:02:54.981Z,80.32
2023-05-15T09:05:59.280Z,78.96
2023-05-15T09:09:03.930Z,81.29
2023-05-15T09:12:10.220Z,76.67
2023-05-15T09:15:14.169Z,77.84
2023-05-15T09:18:17.194Z,78.57
2023-05-15T09:21:27.851Z,78.89
2023-05-15T09:24:31.688Z,79.45
2023-05-15T09:27:43.037Z,78.39
2023-05-15T09:30:45.066Z,78.16
2023-05-15T09:33:47.092Z,81.21
2023-05-15T09:36:50.597Z,84.66
2023-05-15T09:39:52.605Z,81.73
2023-05-15T09:42:54.576Z,83.24
2023-05-15T09:45:56.622Z,79.00
2023-05-15T09:48:59.980Z,81.44
2023-05-15T09:52:03.657Z,82.35
2023-05-15T09:55:07.353Z,79.06
2023-05-15T09:58:13.708Z,78.70
2023-05-15T10:01:19.983Z,80.23
2023-05-15T10:04:21.895Z,78.48
2023-05-15T10:07:32.157Z,79.24
2023-05-15T10:10:34.135Z,80.37
2023-05-15T10:13:37.116Z,77.98
2023-05-15T10:16:41.595Z,77.69
2023-05-15T10:19:56.746Z,76.95
2023-05-15T10:23:04.545Z,75.39
2023-05-15T10:26:14.418Z,77.91
2023-05-15T10:29:19.245Z,78.21
2023-05-15T10:32:22.180Z,76.77
2023-05-15T10:35:25.090Z,76.15
2023-05-15T10:38:29.546Z,74.19
2023-05-15T10:41:33.565Z,78.55
2023-05-15T10:44:35.564Z,76.28
2023-05-15T10:47:39.660Z,73.01
2023-05-15T10:50:41.747Z,76.10
2023-05-15T10:53:45.817Z,73.56
2023-05-15T10:56:52.225Z,71.94
2023-05-15T10:59:54.561Z,76.96
2023-05-15T11:02:58.747Z,72.20
2023-05-15T11:06:11.720Z,73.54
2023-05-15T11:09:40.324Z,70.98
2023-05-15T11:13:01.190Z,68.91
2023-05-15T11:16:04.437Z,73.62
2023-05-15T11:19:22.220Z,70.01
2023-05-15T11:22:31.500Z,68.63
2023-05-15T11:25:35.842Z,70.35
2023-05-15T11:28:44.480Z,72.61
2023-05-15T11:31:46.429Z,71.88
2023-05-15T11:34:50.211Z,69.59
2023-05-15T11:37:54.269Z,67.46
2023-05-15T11:41:02.712Z,68.33
2023-05-15T11:44:05.084Z,64.76
2023-05-15T11:47:10.261Z,66.90
2023-05-15T11:50:12.755Z,70.85
2023-05-15T11:53:15.725Z,70.14
2023-05-15T11:56:20.058Z,71.98
2023-05-15T11:59:22.022Z,69.95
2023-05-15T12:02:24.781Z,69.77
2023-05-15T12:05:26.722Z,72.10
2023-05-15T12:08:32.572Z,72.58
2023-05-15T12:11:36.201Z,72.20
2023-05-15T12:14:40.033Z,71.77
2023-05-15T12:17:43.166Z,74.14
2023-05-15T12:20:46.880Z,71.12
2023-05-15T12:27:00.026Z,69.45
2023-05-15T12:30:03.010Z,70.54
2023-05-15T12:33:07.573Z,71.43
2023-05-15T12:36:09.728Z,68.91
2023-05-15T12:39:11.881Z,67.64
2023-05-15T12:42:17.537Z,66.54
2023-05-15T12:45:20.542Z,68.40
2023-05-15T12:48:22.926Z,70.85
2023-05-15T12:51:24.882Z,68.26
2023-05-15T12:54:26.853Z,67.48
2023-05-15T12:57:30.494Z,68.60
2023-05-15T13:00:34.564Z,72.72
2023-05-15T13:03:36.739Z,72.03
2023-05-15T13:06:46.287Z,69.83
2023-05-15T13:10:02.696Z,68.74
2023-05-15T13:13:06.120Z,70.30
2023-05-15T13:16:18.321Z,66.36
2023-05-15T13:19:21.327Z,68.08
2023-05-15T13:22:23.378Z,66.11
2023-05-15T13:25:25.809Z,70.86
2023-05-15T13:28:29.176Z,72.53
2023-05-15T13:31:32.292Z,68.28
2023-05-15T13:34:34.368Z,69.24
2023-05-15T13:37:36.560Z,70.11
2023-05-15T13:40:38.517Z,64.85
2023-05-15T13:43:41.963Z,67.15
2023-05-15T13:46:44.085Z,66.87
2023-05-15T13:49:46.364Z,67.83
2023-05-15T13:52:48.312Z,68.87
2023-05-15T13:55:50.186Z,68.11
2023-05-15T13:58:53.505Z,67.06
2023-05-15T14:01:55.503Z,63.99
2023-05-15T14:04:57.459Z,66.83
2023-05-15T14:07:59.499Z,65.73
2023-05-15T14:11:01.776Z,66.70
2023-05-15T14:14:07.298Z,65.98
2023-05-15T14:17:09.317Z,66.02
2023-05-15T14:20:11.984Z,65.82
2023-05-15T14:23:13.940Z,71.07
2023-05-15T14:26:16.390Z,64.99
2023-05-15T14:29:19.806Z,67.45
2023-05-15T14:32:21.769Z,65.29
2023-05-15T14:35:23.696Z,70.36
2023-05-15T14:38:25.666Z,68.61
2023-05-15T14:41:27.933Z,67.37
2023-05-15T14:44:31.206Z,66.48
2023-05-15T14:47:33.920Z,65.71
2023-05-15T14:50:35.826Z,67.95
2023-05-15T14:53:39.190Z,66.45
2023-05-15T14:56:41.122Z,64.35
2023-05-15T14:59:44.416Z,64.30
2023-05-15T15:02:46.615Z,67.52
2023-05-15T15:05:48.851Z,70.04
2023-05-15T15:08:51.118Z,68.69
2023-05-15T15:11:53.123Z,65.56
2023-05-15T15:14:56.489Z,65.95
2023-05-15T15:17:58.943Z,67.70
2023-05-15T15:21:00.982Z,66.78
2023-05-15T15:24:02.898Z,64.01
2023-05-15T15:27:05.165Z,66.61
2023-05-15T15:30:10.272Z,64.81
2023-05-15T15:33:12.129Z,64.75
2023-05-15T15:36:14.045Z,64.63
2023-05-15T15:39:17.591Z,65.23
2023-05-15T15:42:19.533Z,63.93
2023-05-15T15:45:23.001Z,65.55
2023-05-15T15:48:24.934Z,67.06
2023-05-15T15:51:26.965Z,68.62
2023-05-15T15:54:29.129Z,66.92
2023-05-15T15:57:31.397Z,71.59
2023-05-15T16:00:37.258Z,67.50
2023-05-15T16:03:39.330Z,67.78
2023-05-15T16:06:41.533Z,65.60
2023-05-15T16:09:43.572Z,66.09
2023-05-15T16:12:45.855Z,69.26
2023-05-15T16:15:49.214Z,72.25
2023-05-15T16:18:56.613Z,72.31
2023-05-15T16:21:58.593Z,71.41
2023-05-15T16:25:00.653Z,69.50
2023-05-15T16:28:02.554Z,67.81
2023-05-15T16:31:06.074Z,68.46
2023-05-15T16:34:08.712Z,71.18
2023-05-15T16:37:10.788Z,69.75
2023-05-15T16:40:13.403Z,69.57
2023-05-15T16:43:15.578Z,72.45
2023-05-15T16:46:19.162Z,69.55
2023-05-15T16:49:21.186Z,68.97
2023-05-15T16:52:23.147Z,68.30
2023-05-15T16:55:25.427Z,72.67
2023-05-15T16:58:27.423Z,71.44
2023-05-15T17:01:30.853Z,71.73
2023-05-15T17:04:35.345Z,69.58
2023-05-15T17:07:38.132Z,71.59
2023-05-15T17:10:42.026Z,70.30
2023-05-15T17:13:43.974Z,71.65
2023-05-15T17:16:47.667Z,73.14
2023-05-15T17:19:49.695Z,75.24
2023-05-15T17:22:51.671Z,78.44
2023-05-15T17:25:53.773Z,77.42
2023-05-15T17:28:55.709Z,77.99
2023-05-15T17:31:59.120Z,79.42
2023-05-15T17:35:01.153Z,76.73
2023-05-15T17:38:03.245Z,78.29
2023-05-15T17:41:07.001Z,80.72
2023-05-15T17:44:09.180Z,77.45
2023-05-15T17:47:12.768Z,78.70
2023-05-15T17:50:14.938Z,80.25
2023-05-15T17:53:16.937Z,82.21
2023-05-15T17:56:19.049Z,82.65
2023-05-15T17:59:21.022Z,83.00
2023-05-15T18:02:24.395Z,84.32
2023-05-15T18:05:27.800Z,84.76
2023-05-15T18:08:30.314Z,83.62
2023-05-15T18:11:32.325Z,80.96
2023-05-15T18:14:34.393Z,80.06
2023-05-15T18:17:37.801Z,79.90
2023-05-15T18:20:39.803Z,78.25
2023-05-15T18:23:41.868Z,83.36
2023-05-15T18:26:43.863Z,83.72
2023-05-15T18:30:00.896Z,83.61
2023-05-15T18:33:04.733Z,84.70
2023-05-15T18:36:15.057Z,84.52
2023-05-15T18:39:17.250Z,84.11
2023-05-15T18:42:34.903Z,84.79
2023-05-15T18:45:37.840Z,84.54
2023-05-15T18:53:15.390Z,85.39
2023-05-15T18:56:42.455Z,86.72
2023-05-15T19:00:10.564Z,86.37
2023-05-15T19:03:24.724Z,86.53
2023-05-15T19:06:46.797Z,86.91
2023-05-15T19:10:08.841Z,87.34
2023-05-15T19:17:13.454Z,84.19
2023-05-15T19:24:51.879Z,84.31
2023-05-15T19:32:34.950Z,83.88
2023-05-15T19:45:53.588Z,85.54
2023-05-15T19:54:03.620Z,85.99
2023-05-15T19:57:11.048Z,84.64
2023-05-15T20:00:24.201Z,85.11
2023-05-15T20:03:33.427Z,83.66
2023-05-15T20:06:49.178Z,82.67
2023-05-15T20:09:51.348Z,80.39
2023-05-15T20:12:58.297Z,81.28
2023-05-15T20:16:00.909Z,80.89
2023-05-15T20:22:21.943Z,79.48
2023-05-15T20:29:21.358Z,79.16
2023-05-15T20:32:23.517Z,80.31
2023-05-15T20:35:31.119Z,81.25
2023-05-15T20:38:34.012Z,80.92
2023-05-15T20:41:37.205Z,82.69
2023-05-15T20:44:43.224Z,82.59
2023-05-15T20:47:45.832Z,84.30
2023-05-15T20:50:48.025Z,83.33
2023-05-15T20:53:51.153Z,84.50
2023-05-15T20:56:53.277Z,83.89
2023-05-15T20:59:58.636Z,84.36
2023-05-15T21:03:00.852Z,83.86
2023-05-15T21:06:03.845Z,84.22
2023-05-15T21:09:10.498Z,84.02
2023-05-15T21:12:14.605Z,84.12
2023-05-15T21:15:18.264Z,83.95
2023-05-15T21:18:20.262Z,84.51
2023-05-15T21:21:22.423Z,84.71
2023-05-15T21:24:24.442Z,84.84
2023-05-15T21:27:26.564Z,84.94
2023-05-15T21:30:33.113Z,84.95
2023-05-15T21:33:40.274Z,84.70
2023-05-15T21:36:42.264Z,85.18
2023-05-15T21:39:46.154Z,85.49
2023-05-15T21:42:48.144Z,85.89
2023-05-15T21:45:54.152Z,85.04
2023-05-15T21:48:57.651Z,85.07
2023-05-15T21:51:59.785Z,86.52
2023-05-15T21:55:02.009Z,85.39
2023-05-15T21:58:04.109Z,85.42
2023-05-15T22:01:07.806Z,85.72
2023-05-15T22:04:10.056Z,86.29
2023-05-15T22:07:30.196Z,85.57
2023-05-15T22:10:32.197Z,85.73
2023-05-15T22:13:40.038Z,86.13
2023-05-15T22:16:51.155Z,85.49
2023-05-15T22:19:54.966Z,85.04
2023-05-15T22:22:57.139Z,84.69
2023-05-15T22:26:00.058Z,84.63
2023-05-15T22:29:02.059Z,84.84
2023-05-15T22:32:06.491Z,85.04
2023-05-15T22:35:09.882Z,85.32
2023-05-15T22:38:12.383Z,84.96
2023-05-15T22:41:14.465Z,85.45
2023-05-15T22:44:16.585Z,84.59
2023-05-15T22:47:20.015Z,84.35
2023-05-15T22:50:24.462Z,84.60
2023-05-15T22:53:26.634Z,85.45
2023-05-15T22:56:28.697Z,85.25
2023-05-15T22:59:30.840Z,85.27
2023-05-15T23:02:34.420Z,85.03
2023-05-15T23:05:36.579Z,85.57
2023-05-15T23:08:38.604Z,85.46
2023-05-15T23:11:40.558Z,85.81
2023-05-15T23:14:42.519Z,85.01
2023-05-15T23:17:45.993Z,85.02
2023-05-15T23:20:47.994Z,84.86
2023-05-15T23:23:52.504Z,85.56
2023-05-15T23:26:57.758Z,85.67
2023-05-15T23:29:59.837Z,85.60
2023-05-15T23:33:03.335Z,85.87
2023-05-15T23:36:06.264Z,85.65
2023-05-15T23:39:09.438Z,85.46
2023-05-15T23:42:12.519Z,84.93
2023-05-15T23:45:15.143Z,83.38
2023-05-15T23:48:18.532Z,83.51
2023-05-15T23:51:20.637Z,83.27
2023-05-15T23:54:22.595Z,82.25
2023-05-15T23:57:24.617Z,82.56
